Time;durP1;ratioP1;P1;durP2;ratioP2;P2;SDS_P1;SDS_P2;PMS_P1;PMS_P2;Temp;Humidity;BMP_temperature;BMP_pressure;BME280_temperature;BME280_humidity;BME280_pressure;Samples;Min_cycle;Max_cycle;Signal;HPM_P1;HPM_P2
2023/03/23 00:08:03;;;;;;;2.73;1.47;;;;;;;9.24;100.00;97235.00;21883474;27;20427;-57
2023/03/23 00:18:05;;;;;;;4.33;1.63;;;;;;;9.26;100.00;97248.22;21883216;27;20037;-56
2023/03/23 00:28:06;;;;;;;2.77;1.27;;;;;;;9.21;100.00;97251.75;21956881;27;20089;-56
2023/03/23 00:38:08;;;;;;;5.10;1.60;;;;;;;9.19;100.00;97250.41;21972718;27;20037;-57
2023/03/23 00:48:09;;;;;;;3.00;1.73;;;;;;;9.20;100.00;97254.72;21972911;27;20036;-57
2023/03/23 00:58:11;;;;;;;2.40;1.50;;;;;;;9.24;100.00;97250.41;21973088;27;20039;-57
2023/03/23 01:08:14;;;;;;;3.63;1.57;;;;;;;9.27;100.00;97234.47;21972323;27;20416;-57
2023/03/23 01:18:15;;;;;;;2.57;1.70;;;;;;;9.32;100.00;97225.56;21972177;27;20080;-55
2023/03/23 01:28:17;;;;;;;2.73;1.30;;;;;;;9.39;100.00;97211.78;21971464;27;20021;-57
2023/03/23 01:38:18;;;;;;;2.57;1.40;;;;;;;9.45;100.00;97198.00;21951575;27;20039;-56
2023/03/23 01:48:27;;;;;;;1.97;1.10;;;;;;;9.51;100.00;97174.53;21952032;27;20028;-56
2023/03/23 01:58:32;;;;;;;1.77;1.20;;;;;;;9.57;100.00;97156.41;21971576;27;20037;-57
2023/03/23 02:08:35;;;;;;;5.70;1.30;;;;;;;9.59;100.00;97149.66;21971013;27;20026;-57
2023/03/23 02:18:51;;;;;;;2.07;1.10;;;;;;;9.56;100.00;97138.59;21970722;27;20063;-57
2023/03/23 02:28:58;;;;;;;2.23;1.03;;;;;;;9.53;100.00;97129.16;21969945;27;20445;-55
2023/03/23 02:39:09;;;;;;;1.90;1.00;;;;;;;9.55;100.00;97107.28;21969833;27;20052;-55
2023/03/23 02:49:15;;;;;;;2.10;0.97;;;;;;;9.53;100.00;97099.47;21950661;27;20358;-56
2023/03/23 02:59:16;;;;;;;2.37;1.20;;;;;;;9.54;100.00;97097.56;21969408;27;20028;-55
2023/03/23 03:09:42;;;;;;;1.63;0.80;;;;;;;9.55;100.00;97093.78;21949326;27;20349;-56
2023/03/23 03:19:49;;;;;;;2.30;1.20;;;;;;;9.55;100.00;97091.09;21969132;27;20104;-56
2023/03/23 03:29:58;;;;;;;1.23;1.03;;;;;;;9.50;100.00;97100.03;21948571;27;20056;-57
2023/03/23 03:40:00;;;;;;;1.70;1.20;;;;;;;9.40;100.00;97098.19;21968829;27;20112;-57
2023/03/23 03:50:01;;;;;;;2.13;1.10;;;;;;;9.24;100.00;97093.94;21968710;27;20044;-57
2023/03/23 04:00:14;;;;;;;2.70;1.30;;;;;;;9.17;100.00;97088.84;21968227;27;20079;-56
2023/03/23 04:10:15;;;;;;;2.20;1.40;;;;;;;9.15;100.00;97078.31;21969715;27;20101;-57
2023/03/23 04:20:20;;;;;;;3.60;1.70;;;;;;;9.14;100.00;97071.31;21973475;27;20039;-57
2023/03/23 04:30:24;;;;;;;4.35;2.15;;;;;;;9.19;100.00;97091.25;21954032;27;20024;-55
2023/03/23 04:40:25;;;;;;;3.57;1.90;;;;;;;9.24;100.00;97102.81;21953703;27;20456;-57
2023/03/23 04:50:32;;;;;;;4.93;2.27;;;;;;;9.25;100.00;97109.00;21953223;27;20110;-57
2023/03/23 05:00:35;;;;;;;4.67;2.37;;;;;;;9.31;100.00;97132.22;21972901;27;20063;-56
2023/03/23 05:10:36;;;;;;;5.80;2.33;;;;;;;9.36;100.00;97123.28;21972215;27;20047;-57
2023/03/23 05:20:37;;;;;;;6.00;1.90;;;;;;;9.44;100.00;97139.72;21951810;27;20033;-57
2023/03/23 05:30:40;;;;;;;2.27;1.37;;;;;;;9.55;100.00;97145.06;21971919;27;20033;-57
2023/03/23 05:40:41;;;;;;;2.87;1.60;;;;;;;9.64;100.00;97146.12;21951979;27;20044;-56
2023/03/23 05:50:42;;;;;;;2.77;1.10;;;;;;;9.81;100.00;97145.75;21971230;27;20021;-55
2023/03/23 06:00:45;;;;;;;4.53;1.23;;;;;;;9.93;100.00;97143.53;21971024;27;20028;-57
2023/03/23 06:10:46;;;;;;;2.97;1.37;;;;;;;10.32;100.00;97166.28;21970879;27;20387;-55
2023/03/23 06:20:47;;;;;;;5.87;1.07;;;;;;;10.70;100.00;97187.38;21949995;27;20033;-57
2023/03/23 06:30:49;;;;;;;1.30;0.87;;;;;;;11.04;100.00;97183.84;21970533;27;20079;-57
2023/03/23 06:40:55;;;;;;;1.13;0.50;;;;;;;11.31;100.00;97191.44;21969263;27;20033;-57
2023/03/23 06:50:56;;;;;;;1.67;1.00;;;;;;;11.52;100.00;97195.56;21969691;27;20067;-57
2023/03/23 07:00:58;;;;;;;0.80;0.50;;;;;;;11.81;100.00;97212.81;21949674;27;20080;-57
2023/03/23 07:10:59;;;;;;;2.17;0.60;;;;;;;12.17;100.00;97223.25;21949553;27;20067;-58
2023/03/23 07:21:00;;;;;;;1.50;0.57;;;;;;;12.34;100.00;97233.59;21968727;27;20029;-56
2023/03/23 07:31:02;;;;;;;1.62;0.80;;;;;;;12.49;100.00;97229.88;21968714;27;20044;-55
2023/03/23 07:41:03;;;;;;;2.15;1.10;;;;;;;12.62;100.00;97244.59;21949074;27;20028;-56
2023/03/23 07:51:07;;;;;;;2.95;1.45;;;;;;;13.03;100.00;97243.94;21973126;27;20048;-57
2023/03/23 08:01:08;;;;;;;4.25;1.67;;;;;;;13.42;100.00;97252.84;21954221;27;20461;-57
2023/03/23 08:11:09;;;;;;;5.35;2.12;;;;;;;13.66;100.00;97263.53;21954266;27;20073;-55
2023/03/23 08:21:11;;;;;;;3.53;2.70;;;;;;;13.82;100.00;97292.03;21972912;27;20025;-54
2023/03/23 08:31:14;;;;;;;3.85;2.17;;;;;;;13.99;100.00;97298.78;21953824;27;20425;-54
2023/03/23 08:41:15;;;;;;;5.15;2.50;;;;;;;14.01;100.00;97310.97;21953370;27;20423;-55
2023/03/23 08:51:17;;;;;;;3.03;2.03;;;;;;;14.28;100.00;97330.31;21972450;27;20071;-58
2023/03/23 09:01:18;;;;;;;2.75;1.92;;;;;;;15.01;100.00;97328.53;21952073;27;20140;-57
2023/03/23 09:11:20;;;;;;;1.73;0.95;;;;;;;15.27;100.00;97321.69;21952576;27;20338;-57
2023/03/23 09:21:21;;;;;;;2.05;1.30;;;;;;;16.01;100.00;97307.56;21972347;27;20032;-57
2023/03/23 09:31:26;;;;;;;2.42;1.50;;;;;;;16.59;100.00;97308.38;21952066;27;20037;-58
2023/03/23 09:41:48;;;;;;;1.90;0.80;;;;;;;16.95;100.00;97298.31;21971345;27;20421;-58
2023/03/23 09:51:54;;;;;;;1.60;1.02;;;;;;;17.26;100.00;97303.59;21970489;27;20401;-57
2023/03/23 10:02:15;;;;;;;4.28;1.77;;;;;;;17.38;95.34;97310.37;21970986;27;20504;-58
2023/03/23 10:12:23;;;;;;;3.00;1.60;;;;;;;17.83;90.13;97312.69;21951086;27;20033;-55
2023/03/23 10:22:33;;;;;;;2.60;1.35;;;;;;;17.94;84.44;97316.69;21969939;27;20035;-55
2023/03/23 10:32:59;;;;;;;4.22;2.22;;;;;;;17.87;89.72;97319.09;21932063;27;20025;-55
2023/03/23 10:43:01;;;;;;;3.03;1.42;;;;;;;18.24;85.03;97316.75;21970564;27;20021;-55
2023/03/23 10:53:15;;;;;;;2.65;1.00;;;;;;;18.77;59.97;97333.69;21969372;27;20034;-55
2023/03/23 11:03:17;;;;;;;;;;;;;;;18.85;60.16;97326.53;21969773;27;20348;-56
2023/03/23 11:13:21;;;;;;;1.75;1.20;;;;;;;19.46;61.42;97317.06;21969486;27;19940;-56
2023/03/23 11:23:53;;;;;;;0.90;0.60;;;;;;;20.19;55.75;97332.13;21948990;27;20040;-56
2023/03/23 11:34:09;;;;;;;1.62;0.88;;;;;;;20.68;50.01;97317.63;21968066;27;20029;-56
2023/03/23 11:44:12;;;;;;;1.25;0.80;;;;;;;20.70;51.06;97322.78;21931408;27;20425;-55
2023/03/23 11:54:26;;;;;;;2.83;0.90;;;;;;;20.44;45.14;97307.41;21968723;27;20037;-55
2023/03/23 12:04:46;;;;;;;1.80;0.82;;;;;;;20.20;47.84;97308.19;21968816;27;20047;-56
2023/03/23 12:14:51;;;;;;;2.28;0.95;;;;;;;20.05;48.79;97315.97;21968249;27;20078;-55
2023/03/23 12:25:14;;;;;;;1.17;0.68;;;;;;;19.93;46.38;97310.47;21967681;27;20436;-55
2023/03/23 12:35:28;;;;;;;2.75;0.68;;;;;;;20.02;47.81;97313.94;21950886;27;20063;-55
2023/03/23 12:45:48;;;;;;;1.67;0.80;;;;;;;19.87;50.52;97301.66;21953911;27;20044;-56
2023/03/23 12:56:13;;;;;;;0.90;0.50;;;;;;;19.25;50.47;97282.28;21972857;27;20333;-55
2023/03/23 13:06:50;;;;;;;1.52;0.80;;;;;;;19.17;53.54;97291.38;21972815;27;20365;-56
2023/03/23 13:17:18;;;;;;;2.67;0.50;;;;;;;19.03;55.54;97301.78;21779925;27;20618;-55
2023/03/23 13:27:25;;;;;;;1.27;0.80;;;;;;;18.45;59.28;97294.87;21780503;27;20112;-53
2023/03/23 13:37:27;;;;;;;2.37;0.90;;;;;;;18.24;59.21;97300.31;21779318;27;20519;-54
2023/03/23 13:47:40;;;;;;;1.98;0.93;;;;;;;17.69;59.77;97288.28;21834497;27;20042;-55
2023/03/23 13:57:57;;;;;;;1.87;1.10;;;;;;;17.35;62.88;97280.94;21878482;27;20472;-53
2023/03/23 14:08:03;;;;;;;1.45;0.85;;;;;;;17.33;63.31;97277.75;21880006;27;20046;-55
2023/03/23 14:18:05;;;;;;;1.35;0.73;;;;;;;17.57;66.50;97271.75;21880344;27;20414;-55
2023/03/23 14:28:20;;;;;;;0.77;0.50;;;;;;;17.98;71.30;97242.19;21952965;27;20061;-55
2023/03/23 14:38:27;;;;;;;1.75;0.75;;;;;;;18.32;70.88;97213.03;21969826;27;20300;-56
2023/03/23 14:48:30;;;;;;;1.87;0.93;;;;;;;18.62;70.43;97206.38;21969797;27;20029;-56
2023/03/23 14:58:35;;;;;;;2.60;0.98;;;;;;;18.75;69.56;97204.50;21949826;27;20020;-55
2023/03/23 15:08:37;;;;;;;1.90;1.13;;;;;;;18.34;68.29;97195.16;21969316;27;20358;-55
2023/03/23 15:18:45;;;;;;;2.28;0.77;;;;;;;18.05;69.81;97188.56;21969031;27;20393;-55
2023/03/23 15:28:48;;;;;;;1.08;0.77;;;;;;;17.83;69.42;97191.53;21968575;27;20368;-55
2023/03/23 15:38:49;;;;;;;1.73;0.60;;;;;;;17.57;66.63;97195.22;21968835;27;20029;-56
2023/03/23 15:48:55;;;;;;;1.65;0.70;;;;;;;17.39;73.89;97183.50;21968794;27;20030;-55
2023/03/23 15:58:59;;;;;;;1.25;0.80;;;;;;;17.15;78.61;97173.94;21949133;27;20067;-54
2023/03/23 16:09:04;;;;;;;2.35;0.90;;;;;;;16.96;83.79;97177.03;21971323;27;20099;-56
2023/03/23 16:19:11;;;;;;;2.42;1.10;;;;;;;16.74;84.19;97173.31;21973461;27;20334;-55
2023/03/23 16:29:16;;;;;;;3.28;1.00;;;;;;;16.55;87.82;97170.12;21973252;27;20075;-55
2023/03/23 16:39:35;;;;;;;1.80;1.05;;;;;;;16.35;91.64;97175.13;21973518;27;20047;-55
2023/03/23 16:49:38;;;;;;;3.83;1.40;;;;;;;16.13;95.10;97186.13;21935543;27;20030;-55
2023/03/23 16:59:41;;;;;;;1.80;1.10;;;;;;;15.93;99.24;97178.25;21972908;27;20021;-55
2023/03/23 17:09:44;;;;;;;2.50;0.98;;;;;;;15.57;100.00;97179.22;21953294;27;20029;-55
2023/03/23 17:19:47;;;;;;;2.10;1.50;;;;;;;15.22;100.00;97170.91;21971918;27;20045;-55
2023/03/23 17:29:50;;;;;;;3.08;1.50;;;;;;;14.90;100.00;97166.56;21971297;27;20025;-54
2023/03/23 17:39:53;;;;;;;2.53;1.73;;;;;;;14.55;100.00;97156.22;21971729;27;20043;-55
2023/03/23 17:49:56;;;;;;;4.90;1.50;;;;;;;14.18;100.00;97158.13;21971801;27;20349;-55
2023/03/23 17:59:59;;;;;;;3.67;1.55;;;;;;;13.82;100.00;97150.72;21971103;27;20313;-54
2023/03/23 18:10:10;;;;;;;3.83;1.98;;;;;;;13.54;100.00;97139.09;21933015;27;20029;-55
2023/03/23 18:20:14;;;;;;;4.10;1.92;;;;;;;13.33;100.00;97135.94;21970382;27;20029;-55
2023/03/23 18:30:16;;;;;;;3.60;1.92;;;;;;;13.15;100.00;97132.19;21969934;27;20060;-54
2023/03/23 18:40:19;;;;;;;4.32;1.73;;;;;;;13.05;100.00;97123.12;21950189;27;20112;-57
2023/03/23 18:50:22;;;;;;;3.70;1.85;;;;;;;12.95;100.00;97117.91;21950494;27;20025;-58
2023/03/23 19:00:26;;;;;;;2.65;1.48;;;;;;;12.84;100.00;97111.03;21948780;27;20037;-55
2023/03/23 19:10:30;;;;;;;3.03;1.93;;;;;;;12.77;100.00;97103.31;21969545;27;20041;-57
2023/03/23 19:20:33;;;;;;;4.80;2.10;;;;;;;12.68;100.00;97096.94;21968793;27;20121;-58
2023/03/23 19:30:57;;;;;;;4.62;1.75;;;;;;;12.67;100.00;97089.91;21969223;27;20299;-57
2023/03/23 19:41:01;;;;;;;2.65;1.40;;;;;;;12.57;100.00;97080.03;21950656;27;20025;-55
2023/03/23 19:51:08;;;;;;;2.77;1.07;;;;;;;12.50;100.00;97072.28;21975339;27;20041;-57
2023/03/23 20:01:11;;;;;;;3.72;1.40;;;;;;;12.50;100.00;97061.44;21974197;27;20437;-57
2023/03/23 20:11:17;;;;;;;3.05;1.70;;;;;;;12.43;100.00;97046.66;21974142;27;20072;-57
2023/03/23 20:21:24;;;;;;;2.53;1.65;;;;;;;12.38;100.00;97044.84;21953745;27;20029;-57
2023/03/23 20:31:34;;;;;;;3.15;1.80;;;;;;;12.26;100.00;97033.66;21973984;27;20038;-57
2023/03/23 20:41:39;;;;;;;3.17;1.35;;;;;;;12.20;100.00;97020.19;21973198;27;20029;-57
2023/03/23 20:51:43;;;;;;;2.70;1.23;;;;;;;12.16;100.00;97011.03;21953340;27;20028;-57
2023/03/23 21:01:49;;;;;;;1.62;1.30;;;;;;;12.20;100.00;96989.59;21972842;27;20021;-55
2023/03/23 21:11:52;;;;;;;2.17;1.30;;;;;;;12.16;100.00;96996.69;21972713;27;20047;-55
2023/03/23 21:21:56;;;;;;;1.97;1.20;;;;;;;12.16;100.00;96994.78;21971905;27;20045;-56
2023/03/23 21:31:59;;;;;;;1.75;1.33;;;;;;;12.15;100.00;96985.03;21972016;27;20029;-56
2023/03/23 21:42:12;;;;;;;2.23;1.40;;;;;;;12.20;100.00;96984.16;21972067;27;20041;-57
2023/03/23 21:52:15;;;;;;;3.80;1.25;;;;;;;12.27;100.00;96973.72;21971308;27;20030;-57
2023/03/23 22:02:17;;;;;;;3.03;1.33;;;;;;;12.42;100.00;96978.06;21970942;27;20409;-57
2023/03/23 22:12:20;;;;;;;0.70;0.70;;;;;;;12.64;100.00;96971.19;21970578;27;20365;-57
2023/03/23 22:22:23;;;;;;;1.90;0.68;;;;;;;12.78;100.00;96979.31;21950988;27;20298;-57
2023/03/23 22:32:26;;;;;;;0.65;0.55;;;;;;;12.92;100.00;96963.03;21970589;27;20039;-55
2023/03/23 22:42:28;;;;;;;1.35;0.70;;;;;;;13.11;100.00;96968.34;21950124;27;20037;-55
2023/03/23 22:52:32;;;;;;;0.45;0.40;;;;;;;13.32;100.00;96972.22;21969685;27;20021;-56
2023/03/23 23:02:34;;;;;;;0.50;0.40;;;;;;;13.55;96.95;96956.81;21969890;27;20080;-56
2023/03/23 23:12:38;;;;;;;0.82;0.52;;;;;;;13.68;93.49;96946.22;21969343;27;20073;-56
2023/03/23 23:22:41;;;;;;;1.17;0.70;;;;;;;13.83;91.67;96934.19;21948504;27;20021;-57
2023/03/23 23:32:45;;;;;;;1.62;0.60;;;;;;;13.69;90.46;96917.91;21949999;27;20022;-56
2023/03/23 23:42:50;;;;;;;0.98;0.60;;;;;;;13.65;89.80;96898.72;21949182;27;20303;-57
2023/03/23 23:52:53;;;;;;;1.00;0.70;;;;;;;13.65;90.81;96889.75;21968898;27;20073;-57
